createdAt,value
2019-03-11T00:01:38.526Z,16.77
2019-03-11T00:04:06.784Z,15.80
2019-03-11T00:06:33.300Z,21.10
2019-03-11T00:09:00.343Z,19.27
2019-03-11T00:11:27.397Z,14.03
2019-03-11T00:13:54.442Z,14.07
2019-03-11T00:18:48.023Z,16.23
2019-03-11T00:21:15.174Z,13.48
2019-03-11T00:23:42.223Z,16.87
2019-03-11T00:26:09.277Z,16.40
2019-03-11T00:28:36.320Z,14.23
2019-03-11T00:31:03.384Z,14.10
2019-03-11T00:33:30.422Z,14.97
2019-03-11T00:35:57.465Z,14.33
2019-03-11T00:38:24.923Z,15.60
2019-03-11T00:40:51.973Z,12.43
2019-03-11T00:43:19.028Z,13.47
2019-03-11T00:45:46.488Z,17.40
2019-03-11T00:48:14.250Z,12.33
2019-03-11T00:50:41.292Z,14.40
2019-03-11T00:53:08.341Z,18.20
2019-03-11T00:55:36.475Z,17.90
2019-03-11T00:58:04.487Z,15.43
2019-03-11T01:00:34.352Z,18.30
2019-03-11T01:03:01.456Z,17.77
2019-03-11T01:05:28.499Z,14.53
2019-03-11T01:07:56.265Z,16.97
2019-03-11T01:10:23.357Z,17.67
2019-03-11T01:12:50.378Z,18.30
2019-03-11T01:15:19.208Z,21.12
2019-03-11T01:17:46.272Z,19.67
2019-03-11T01:20:13.356Z,18.27
2019-03-11T01:22:40.399Z,24.13
2019-03-11T01:25:07.449Z,21.07
2019-03-11T01:27:34.503Z,21.57
2019-03-11T01:30:01.545Z,19.23
2019-03-11T01:32:28.594Z,21.98
2019-03-11T01:34:56.360Z,21.12
2019-03-11T01:37:23.413Z,23.50
2019-03-11T01:39:50.460Z,22.90
2019-03-11T01:42:17.505Z,23.27
2019-03-11T01:44:44.559Z,25.95
2019-03-11T01:47:11.601Z,26.65
2019-03-11T01:49:38.553Z,26.33
2019-03-11T01:52:05.597Z,25.13
2019-03-11T01:54:32.588Z,19.93
2019-03-11T01:56:59.591Z,29.17
2019-03-11T01:59:26.639Z,26.13
2019-03-11T02:01:54.406Z,26.77
2019-03-11T02:04:21.459Z,24.53
2019-03-11T02:06:48.510Z,25.40
2019-03-11T02:09:15.550Z,24.37
2019-03-11T02:11:42.549Z,22.70
2019-03-11T02:19:02.617Z,24.20
2019-03-11T02:21:31.408Z,24.87
2019-03-11T02:23:58.457Z,25.23
2019-03-11T02:26:25.512Z,27.08
2019-03-11T02:28:53.066Z,25.92
2019-03-11T02:31:20.122Z,25.40
2019-03-11T02:33:47.175Z,24.17
2019-03-11T02:36:14.424Z,22.42
2019-03-11T02:38:41.467Z,23.55
2019-03-11T02:41:08.516Z,24.08
2019-03-11T02:43:36.082Z,25.85
2019-03-11T02:46:07.020Z,24.75
2019-03-11T02:48:34.173Z,24.50
2019-03-11T02:51:01.212Z,23.62
2019-03-11T02:53:28.262Z,21.15
2019-03-11T02:55:55.625Z,26.00
2019-03-11T02:58:22.817Z,26.42
2019-03-11T03:00:50.461Z,25.73
2019-03-11T03:05:52.414Z,19.13
2019-03-11T03:08:19.462Z,20.20
2019-03-11T03:10:46.516Z,20.63
2019-03-11T03:13:13.559Z,23.70
2019-03-11T03:15:40.607Z,20.03
2019-03-11T03:18:07.662Z,20.57
2019-03-11T03:20:34.705Z,21.97
2019-03-11T03:23:01.755Z,22.00
2019-03-11T03:25:34.433Z,21.20
2019-03-11T03:27:55.963Z,20.57
2019-03-11T03:30:23.120Z,21.33
2019-03-11T03:32:50.066Z,18.07
2019-03-11T03:35:17.921Z,18.80
2019-03-11T03:37:44.966Z,25.48
2019-03-11T03:40:12.168Z,23.38
2019-03-11T03:42:39.271Z,24.65
2019-03-11T03:45:14.406Z,24.80
2019-03-11T03:50:07.997Z,19.53
2019-03-11T03:52:36.994Z,23.17
2019-03-11T03:55:04.095Z,21.57
2019-03-11T03:57:31.081Z,19.93
2019-03-11T03:59:58.155Z,22.87
2019-03-11T04:02:25.179Z,20.03
2019-03-11T04:09:46.223Z,23.95
2019-03-11T04:12:14.602Z,23.70
2019-03-11T04:14:41.657Z,25.33
2019-03-11T04:17:08.701Z,24.37
2019-03-11T04:19:36.576Z,24.58
2019-03-11T04:22:03.619Z,23.97
2019-03-11T04:24:30.666Z,26.00
2019-03-11T04:26:58.133Z,23.10
2019-03-11T04:29:25.181Z,24.40
2019-03-11T04:32:13.623Z,24.08
2019-03-11T04:34:51.053Z,22.23
2019-03-11T04:37:19.812Z,22.25
2019-03-11T04:39:46.856Z,18.47
2019-03-11T04:44:41.666Z,19.03
2019-03-11T04:47:08.678Z,23.30
2019-03-11T04:49:35.762Z,22.58
2019-03-11T04:52:02.814Z,23.65
2019-03-11T04:54:29.863Z,23.20
2019-03-11T04:56:56.907Z,24.65
2019-03-11T04:59:23.956Z,22.75
2019-03-11T05:01:51.017Z,23.60
2019-03-11T05:04:18.054Z,21.62
2019-03-11T05:06:46.707Z,23.33
2019-03-11T05:09:13.691Z,25.10
2019-03-11T05:11:40.735Z,21.33
2019-03-11T05:14:07.782Z,21.30
2019-03-11T05:16:35.855Z,21.70
2019-03-11T05:19:02.918Z,22.27
2019-03-11T05:21:33.747Z,20.10
2019-03-11T05:24:03.453Z,20.30
2019-03-11T05:26:30.514Z,22.62
2019-03-11T05:28:57.557Z,22.25
2019-03-11T05:31:25.277Z,22.55
2019-03-11T05:33:53.188Z,21.10
2019-03-11T05:36:20.233Z,22.67
2019-03-11T05:38:47.287Z,20.95
2019-03-11T05:41:14.277Z,20.75
2019-03-11T05:43:41.328Z,20.33
2019-03-11T05:46:08.427Z,19.37
2019-03-11T05:48:37.321Z,24.40
2019-03-11T05:51:04.366Z,19.27
2019-03-11T05:53:31.413Z,20.42
2019-03-11T05:55:58.689Z,18.90
2019-03-11T05:58:25.717Z,20.62
2019-03-11T06:00:52.970Z,33.72
2019-03-11T06:03:20.127Z,25.20
2019-03-11T06:05:47.168Z,21.15
2019-03-11T06:08:27.432Z,23.75
2019-03-11T06:10:54.482Z,20.67
2019-03-11T06:13:21.526Z,23.25
2019-03-11T06:15:48.536Z,19.12
2019-03-11T06:18:15.621Z,18.52
2019-03-11T06:20:53.073Z,18.23
2019-03-11T06:23:20.174Z,18.70
2019-03-11T06:25:47.215Z,17.40
2019-03-11T06:28:14.977Z,18.42
2019-03-11T06:30:42.743Z,16.63
2019-03-11T06:33:09.790Z,14.10
2019-03-11T06:35:36.940Z,18.90
2019-03-11T06:38:05.734Z,18.52
2019-03-11T06:40:33.087Z,16.03
2019-03-11T06:43:00.239Z,18.08
2019-03-11T06:45:54.462Z,17.05
2019-03-11T06:48:46.457Z,14.50
2019-03-11T06:51:15.378Z,12.97
2019-03-11T06:53:42.401Z,17.30
2019-03-11T06:56:09.513Z,7.67
2019-03-11T06:58:36.625Z,15.15
2019-03-11T07:01:03.589Z,17.25
2019-03-11T07:03:30.693Z,17.67
2019-03-11T07:05:57.743Z,20.65
2019-03-11T07:08:24.750Z,15.80
2019-03-11T07:11:15.009Z,15.45
2019-03-11T07:13:42.389Z,16.12
2019-03-11T07:16:09.698Z,14.90
2019-03-11T07:18:36.537Z,17.17
2019-03-11T07:21:03.690Z,14.97
2019-03-11T07:23:30.743Z,15.13
2019-03-11T07:25:57.802Z,17.73
2019-03-11T07:28:24.834Z,14.70
2019-03-11T07:30:52.001Z,15.40
2019-03-11T07:33:19.040Z,14.55
2019-03-11T07:35:46.083Z,16.70
2019-03-11T07:38:13.134Z,13.60
2019-03-11T07:40:40.897Z,16.13
2019-03-11T07:43:08.062Z,16.62
2019-03-11T07:45:36.760Z,14.77
2019-03-11T07:48:03.886Z,14.75
2019-03-11T07:50:30.943Z,15.32
2019-03-11T07:52:57.985Z,15.75
2019-03-11T07:55:25.035Z,17.08
2019-03-11T07:57:52.084Z,14.55
2019-03-11T08:00:19.236Z,14.48
2019-03-11T08:02:46.281Z,16.45
2019-03-11T08:05:13.328Z,16.02
2019-03-11T08:07:40.385Z,15.93
2019-03-11T08:10:10.297Z,17.30
2019-03-11T08:12:38.062Z,12.90
2019-03-11T08:15:05.433Z,11.90
2019-03-11T08:17:32.672Z,13.53
2019-03-11T08:19:59.715Z,12.43
2019-03-11T08:22:26.766Z,13.63
2019-03-11T08:24:53.839Z,15.32
2019-03-11T08:27:31.895Z,15.85
2019-03-11T08:30:10.547Z,15.55
2019-03-11T08:32:37.592Z,12.75
2019-03-11T08:35:06.087Z,16.67
2019-03-11T08:37:31.890Z,13.68
2019-03-11T08:39:59.127Z,15.38
2019-03-11T08:42:26.191Z,12.20
2019-03-11T08:45:18.442Z,15.95
2019-03-11T08:48:08.123Z,13.00
2019-03-11T08:50:35.163Z,13.07
2019-03-11T08:53:02.213Z,11.45
2019-03-11T08:55:29.256Z,14.55
2019-03-11T08:57:56.305Z,17.30
2019-03-11T09:00:23.380Z,14.70
2019-03-11T09:02:50.401Z,13.63
2019-03-11T09:05:17.863Z,15.10
2019-03-11T09:07:44.909Z,16.37
2019-03-11T09:10:12.980Z,16.30
2019-03-11T09:12:40.438Z,14.80
2019-03-11T09:15:07.493Z,18.10
2019-03-11T09:17:34.806Z,12.33
2019-03-11T09:20:01.689Z,11.98
2019-03-11T09:22:28.735Z,12.05
2019-03-11T09:24:55.795Z,11.45
2019-03-11T09:27:24.674Z,13.45
2019-03-11T09:29:51.676Z,11.18
2019-03-11T09:32:19.574Z,13.60
2019-03-11T09:34:46.748Z,10.27
2019-03-11T09:37:13.801Z,9.68
2019-03-11T09:39:40.847Z,14.50
2019-03-11T09:42:07.907Z,13.52
2019-03-11T09:44:36.532Z,11.35
2019-03-11T09:47:03.625Z,11.10
2019-03-11T09:49:30.778Z,14.07
2019-03-11T09:51:57.847Z,12.82
2019-03-11T09:54:24.874Z,12.60
2019-03-11T09:56:51.922Z,11.25
2019-03-11T09:59:18.974Z,12.77
2019-03-11T10:01:46.022Z,16.83
2019-03-11T10:04:13.071Z,13.95
2019-03-11T10:07:06.013Z,11.90
2019-03-11T10:09:33.133Z,13.82
2019-03-11T10:12:00.230Z,10.68
2019-03-11T10:14:28.400Z,10.80
2019-03-11T10:16:55.549Z,8.43
2019-03-11T10:19:22.557Z,13.75
2019-03-11T10:21:49.544Z,15.38
2019-03-11T10:24:16.597Z,13.95
2019-03-11T10:26:43.846Z,12.23
2019-03-11T10:29:10.900Z,15.38
2019-03-11T10:31:37.942Z,17.87
2019-03-11T10:34:05.005Z,14.38
2019-03-11T10:36:35.126Z,14.10
2019-03-11T10:39:02.165Z,18.30
2019-03-11T10:41:29.629Z,19.00
2019-03-11T10:43:56.770Z,16.30
2019-03-11T10:46:23.820Z,12.85
2019-03-11T10:48:50.885Z,16.62
2019-03-11T10:51:17.916Z,14.85
2019-03-11T10:53:44.965Z,15.18
2019-03-11T10:56:12.116Z,15.55
2019-03-11T10:58:39.170Z,18.42
2019-03-11T11:01:06.321Z,15.73
2019-03-11T11:03:33.371Z,17.10
2019-03-11T11:06:02.256Z,17.30
2019-03-11T11:10:56.154Z,18.00
2019-03-11T11:13:23.306Z,16.95
2019-03-11T11:15:50.966Z,16.35
2019-03-11T11:18:18.225Z,18.95
2019-03-11T11:20:45.681Z,16.62
2019-03-11T11:23:12.726Z,17.20
2019-03-11T11:25:39.780Z,17.20
2019-03-11T11:28:06.831Z,15.73
2019-03-11T11:30:34.176Z,15.23
2019-03-11T11:33:05.540Z,15.25
2019-03-11T11:35:34.519Z,18.70
2019-03-11T11:38:01.589Z,15.33
2019-03-11T11:40:28.728Z,19.08
2019-03-11T11:42:57.762Z,13.02
2019-03-11T11:45:25.791Z,11.90
2019-03-11T11:47:52.837Z,14.75
2019-03-11T11:50:19.985Z,15.00
2019-03-11T11:52:46.989Z,12.52
2019-03-11T11:55:14.088Z,12.48
2019-03-11T11:57:47.998Z,12.45
2019-03-11T12:00:16.938Z,13.83
2019-03-11T12:02:43.989Z,17.17
2019-03-11T12:05:11.085Z,15.65
2019-03-11T12:07:38.138Z,14.60
2019-03-11T12:10:05.171Z,12.93
2019-03-11T12:12:33.151Z,13.48
2019-03-11T12:15:00.246Z,13.85
2019-03-11T12:34:33.450Z,12.90
2019-03-11T12:37:00.462Z,3.10
2019-03-11T12:39:28.337Z,1.30
2019-03-11T12:42:17.524Z,1.12
2019-03-11T12:45:07.114Z,1.70
2019-03-11T12:47:34.432Z,0.93
2019-03-11T12:50:01.793Z,2.20
2019-03-11T12:52:28.790Z,1.10
2019-03-11T13:19:25.961Z,1.60
2019-03-11T13:21:53.127Z,3.10
2019-03-11T13:24:21.082Z,2.50
2019-03-11T13:26:48.750Z,6.05
2019-03-11T13:29:15.794Z,6.68
2019-03-11T13:31:42.841Z,10.17
2019-03-11T13:34:09.901Z,7.20
2019-03-11T13:36:38.373Z,4.57
2019-03-11T13:39:05.441Z,3.63
2019-03-11T13:41:33.395Z,4.17
2019-03-11T13:44:00.439Z,7.12
2019-03-11T13:53:48.739Z,5.75
2019-03-11T13:56:16.610Z,5.57
2019-03-11T13:58:43.653Z,5.53
2019-03-11T14:01:10.707Z,2.10
2019-03-11T14:03:37.751Z,0.60
2019-03-11T14:06:08.894Z,1.83
2019-03-11T14:08:35.944Z,1.20
2019-03-11T14:11:03.025Z,3.87
2019-03-11T14:13:30.458Z,4.00
2019-03-11T14:15:57.505Z,0.90
2019-03-11T14:18:24.549Z,2.33
2019-03-11T14:20:51.602Z,2.65
2019-03-11T14:23:18.597Z,1.12
2019-03-11T14:25:45.599Z,1.37
2019-03-11T14:28:13.908Z,0.68
2019-03-11T14:30:39.793Z,3.40
2019-03-11T14:33:06.941Z,1.15
2019-03-11T14:35:34.707Z,0.62
2019-03-11T14:38:01.756Z,0.60
2019-03-11T14:40:28.809Z,0.90
2019-03-11T14:42:58.903Z,1.33
2019-03-11T14:45:27.659Z,0.70
2019-03-11T14:47:57.242Z,2.45
2019-03-11T14:50:24.449Z,1.03
2019-03-11T14:52:52.034Z,0.80
2019-03-11T14:55:20.169Z,0.77
2019-03-11T14:57:47.161Z,0.83
2019-03-11T15:00:21.071Z,0.70
2019-03-11T15:02:48.710Z,0.90
2019-03-11T15:05:15.776Z,0.50
2019-03-11T15:07:42.834Z,0.70
2019-03-11T15:10:09.981Z,0.80
2019-03-11T15:12:36.923Z,0.80
2019-03-11T15:15:03.976Z,0.60
2019-03-11T15:17:31.128Z,0.70
2019-03-11T15:19:58.278Z,0.80
2019-03-11T15:22:25.269Z,0.40
2019-03-11T15:24:52.272Z,0.50
2019-03-11T15:27:19.315Z,0.50
2019-03-11T15:29:47.190Z,0.60
2019-03-11T15:32:14.242Z,0.73
2019-03-11T15:34:41.281Z,0.57
2019-03-11T15:37:12.529Z,0.53
2019-03-11T15:39:39.577Z,1.03
2019-03-11T15:44:33.059Z,0.50
2019-03-11T15:47:00.108Z,0.50
2019-03-11T15:49:29.316Z,0.60
2019-03-11T15:51:56.355Z,0.70
2019-03-11T15:54:23.408Z,0.90
2019-03-11T15:56:51.688Z,3.43
2019-03-11T15:59:18.793Z,0.70
2019-03-11T16:01:45.989Z,0.77
2019-03-11T16:04:21.127Z,0.83
2019-03-11T16:06:48.199Z,1.00
2019-03-11T16:09:18.994Z,1.00
2019-03-11T16:11:55.582Z,5.23
2019-03-11T16:14:25.601Z,2.50
2019-03-11T16:16:54.317Z,2.97
2019-03-11T16:19:21.437Z,2.77
2019-03-11T16:21:48.491Z,0.83
2019-03-11T16:24:16.558Z,0.80
2019-03-11T16:26:43.610Z,1.87
2019-03-11T16:29:13.932Z,1.10
2019-03-11T16:31:42.829Z,1.20
2019-03-11T16:34:09.871Z,0.80
2019-03-11T16:36:38.666Z,1.42
2019-03-11T16:39:05.816Z,1.80
2019-03-11T16:41:32.860Z,0.33
2019-03-11T16:44:01.697Z,0.30
2019-03-11T16:46:28.805Z,0.53
2019-03-11T16:48:55.849Z,0.20
2019-03-11T16:51:32.829Z,0.50
2019-03-11T16:54:04.391Z,0.33
2019-03-11T16:56:31.432Z,0.40
2019-03-11T16:58:58.483Z,0.30
2019-03-11T17:01:25.537Z,0.40
2019-03-11T17:04:00.063Z,0.40
2019-03-11T17:06:27.108Z,0.50
2019-03-11T17:08:54.172Z,0.50
2019-03-11T17:11:21.208Z,0.30
2019-03-11T17:13:48.564Z,0.40
2019-03-11T17:16:15.711Z,0.40
2019-03-11T17:18:42.764Z,0.33
2019-03-11T17:21:10.829Z,0.50
2019-03-11T17:40:43.640Z,0.30
2019-03-11T17:43:10.701Z,0.30
2019-03-11T17:45:37.731Z,0.50
2019-03-11T17:48:11.323Z,0.40
2019-03-11T17:50:38.387Z,0.20
2019-03-11T17:53:05.471Z,7.93
2019-03-11T17:55:32.582Z,1.73
2019-03-11T17:58:01.168Z,0.80
2019-03-11T18:00:29.955Z,14.27
2019-03-11T18:02:57.003Z,13.53
2019-03-11T18:05:24.056Z,3.90
2019-03-11T18:07:56.219Z,0.87
2019-03-11T18:10:23.273Z,2.53
2019-03-11T18:12:51.623Z,1.50
2019-03-11T18:15:31.211Z,2.00
2019-03-11T18:17:58.899Z,7.30
2019-03-11T18:20:26.009Z,4.23
2019-03-11T18:22:53.051Z,1.63
2019-03-11T18:25:24.402Z,8.83
2019-03-11T18:27:51.471Z,0.73
2019-03-11T18:30:21.574Z,1.40
2019-03-11T18:33:09.782Z,3.80
2019-03-11T18:35:40.619Z,0.50
2019-03-11T18:38:07.623Z,1.47
2019-03-11T18:40:36.389Z,5.50
2019-03-11T18:43:03.928Z,15.70
2019-03-11T18:45:31.013Z,3.30
2019-03-11T18:47:58.002Z,44.10
2019-03-11T18:50:25.517Z,2.17
2019-03-11T18:52:52.554Z,1.80
2019-03-11T18:55:19.606Z,8.20
2019-03-11T18:57:48.108Z,2.10
2019-03-11T19:00:16.571Z,3.25
2019-03-11T19:02:47.854Z,20.60
2019-03-11T19:05:15.087Z,2.70
2019-03-11T19:07:42.218Z,8.90
2019-03-11T19:10:09.705Z,2.80
2019-03-11T19:12:36.853Z,9.88
2019-03-11T19:15:03.983Z,8.00
2019-03-11T19:17:32.619Z,5.32
2019-03-11T19:20:02.821Z,9.75
2019-03-11T19:22:30.140Z,8.98
2019-03-11T19:25:00.212Z,39.90
2019-03-11T19:27:27.697Z,13.97
2019-03-11T19:29:57.153Z,11.38
2019-03-11T19:32:25.893Z,5.47
2019-03-11T19:34:54.340Z,5.87
2019-03-11T19:37:21.364Z,14.40
2019-03-11T19:39:48.399Z,3.47
2019-03-11T19:42:19.577Z,4.63
2019-03-11T19:44:50.746Z,6.60
2019-03-11T19:47:21.954Z,3.85
2019-03-11T19:49:53.795Z,1.65
2019-03-11T19:52:25.757Z,2.65
2019-03-11T19:54:59.505Z,1.43
2019-03-11T19:57:45.262Z,1.47
2019-03-11T20:00:16.473Z,2.08
2019-03-11T20:02:45.641Z,1.92
2019-03-11T20:05:12.825Z,36.05
2019-03-11T20:07:39.934Z,16.90
2019-03-11T20:10:13.517Z,3.28
2019-03-11T20:12:45.997Z,1.70
2019-03-11T20:15:13.484Z,1.10
2019-03-11T20:17:44.501Z,0.93
2019-03-11T20:20:15.381Z,12.18
2019-03-11T20:22:43.632Z,13.73
2019-03-11T20:25:13.512Z,5.25
2019-03-11T20:27:40.864Z,4.77
2019-03-11T20:30:08.762Z,1.30
2019-03-11T20:32:36.181Z,0.82
2019-03-11T20:35:08.725Z,0.80
2019-03-11T20:37:37.124Z,1.35
2019-03-11T20:40:08.610Z,0.90
2019-03-11T20:42:38.888Z,0.70
2019-03-11T20:45:09.691Z,0.87
2019-03-11T20:47:52.953Z,0.97
2019-03-11T20:50:43.654Z,0.83
2019-03-11T20:53:11.229Z,1.30
2019-03-11T20:55:38.715Z,1.10
2019-03-11T20:58:06.508Z,1.17
2019-03-11T21:00:33.653Z,2.20
2019-03-11T21:03:03.636Z,1.35
2019-03-11T21:05:30.844Z,1.67
2019-03-11T21:07:57.963Z,1.92
2019-03-11T21:10:24.954Z,1.73
2019-03-11T21:12:52.093Z,2.67
2019-03-11T21:15:19.222Z,2.15
2019-03-11T21:17:46.357Z,1.80
2019-03-11T21:20:13.891Z,1.60
2019-03-11T21:22:40.554Z,2.15
2019-03-11T21:25:09.581Z,2.25
2019-03-11T21:27:36.822Z,1.58
2019-03-11T21:30:04.998Z,1.45
2019-03-11T21:32:32.022Z,3.50
2019-03-11T21:34:59.115Z,1.30
2019-03-11T21:37:28.068Z,2.60
2019-03-11T21:39:55.191Z,1.77
2019-03-11T21:42:22.249Z,4.07
2019-03-11T21:44:50.473Z,3.95
2019-03-11T21:47:17.519Z,3.12
2019-03-11T21:49:44.557Z,1.90
2019-03-11T21:52:11.725Z,2.47
2019-03-11T21:54:38.984Z,7.45
2019-03-11T21:57:05.991Z,2.28
2019-03-11T21:59:33.206Z,2.40
2019-03-11T22:02:00.281Z,1.70
2019-03-11T22:04:27.325Z,2.80
2019-03-11T22:06:56.484Z,2.00
2019-03-11T22:09:23.470Z,2.00
2019-03-11T22:11:50.519Z,1.50
2019-03-11T22:14:17.578Z,2.00
2019-03-11T22:16:44.617Z,2.15
2019-03-11T22:19:11.665Z,1.48
2019-03-11T22:21:38.718Z,1.50
2019-03-11T22:24:05.842Z,1.70
2019-03-11T22:26:32.913Z,1.35
2019-03-11T22:29:00.065Z,1.60
2019-03-11T22:31:27.113Z,1.80
2019-03-11T22:33:54.263Z,3.83
2019-03-11T22:36:21.318Z,1.90
2019-03-11T22:38:48.308Z,1.73
2019-03-11T22:41:16.848Z,1.85
2019-03-11T22:43:43.892Z,1.33
2019-03-11T22:46:10.940Z,1.40
2019-03-11T22:48:40.374Z,1.30
2019-03-11T22:51:07.391Z,1.40
2019-03-11T22:53:34.446Z,1.58
2019-03-11T22:56:01.493Z,1.57
2019-03-11T22:58:28.543Z,3.47
2019-03-11T23:00:56.410Z,2.17
2019-03-11T23:03:23.558Z,1.23
2019-03-11T23:05:57.516Z,1.35
2019-03-11T23:08:17.754Z,1.70
2019-03-11T23:10:46.442Z,1.73
2019-03-11T23:13:13.513Z,2.03
2019-03-11T23:15:40.540Z,2.75
2019-03-11T23:18:07.588Z,3.58
2019-03-11T23:20:34.641Z,2.10
2019-03-11T23:23:03.529Z,2.00
2019-03-11T23:25:31.976Z,1.33
2019-03-11T23:27:58.957Z,1.27
2019-03-11T23:30:26.011Z,2.47
2019-03-11T23:32:53.161Z,2.50
2019-03-11T23:35:20.208Z,2.55
